Time;durP1;ratioP1;P1;durP2;ratioP2;P2;SDS_P1;SDS_P2;PMS_P1;PMS_P2;Temp;Humidity;BMP_temperature;BMP_pressure;BME280_temperature;BME280_humidity;BME280_pressure;Samples;Min_cycle;Max_cycle;Signal;HPM_P1;HPM_P2
2021/12/21 00:00:27;;;;;;;10.88;5.32;;;1.50;99.90;;;;;;5011280;28;20462;-56
2021/12/21 00:02:54;;;;;;;13.73;7.18;;;1.50;99.90;;;;;;5011732;28;20068;-57
2021/12/21 00:05:25;;;;;;;11.63;5.65;;;1.50;99.90;;;;;;5011947;28;20038;-54
2021/12/21 00:07:52;;;;;;;8.43;5.63;;;1.50;99.90;;;;;;5011621;28;20069;-56
2021/12/21 00:10:20;;;;;;;14.20;5.93;;;1.50;99.90;;;;;;5011963;28;20104;-52
2021/12/21 00:15:25;;;;;;;9.18;5.45;;;1.50;99.90;;;;;;5011172;28;20026;-53
2021/12/21 00:17:58;;;;;;;11.23;6.18;;;1.50;99.90;;;;;;5011610;28;20038;-50
2021/12/21 00:20:30;;;;;;;10.73;5.47;;;1.40;99.90;;;;;;5011703;28;20037;-52
2021/12/21 00:23:29;;;;;;;11.25;6.03;;;1.40;99.90;;;;;;5011718;28;20025;-50
2021/12/21 00:25:56;;;;;;;11.30;5.57;;;1.40;99.90;;;;;;5008469;28;20083;-53
2021/12/21 00:28:22;;;;;;;13.60;6.03;;;1.40;99.90;;;;;;5013177;28;20026;-53
2021/12/21 00:30:47;;;;;;;10.00;5.60;;;1.40;99.90;;;;;;5012126;28;20065;-54
2021/12/21 00:33:14;;;;;;;8.38;4.68;;;1.40;99.90;;;;;;5013078;28;20408;-53
2021/12/21 00:35:40;;;;;;;10.68;5.78;;;1.40;99.90;;;;;;5013267;28;20101;-53
2021/12/21 00:38:05;;;;;;;14.32;5.97;;;1.40;99.90;;;;;;5013261;28;20544;-50
2021/12/21 00:40:31;;;;;;;11.38;5.53;;;1.30;99.90;;;;;;5013202;28;20098;-52
2021/12/21 00:42:58;;;;;;;10.65;5.13;;;1.30;99.90;;;;;;5013126;28;20053;-53
2021/12/21 00:45:24;;;;;;;11.98;5.43;;;1.30;99.90;;;;;;5012108;28;20041;-52
2021/12/21 00:47:50;;;;;;;9.52;5.53;;;1.40;99.90;;;;;;5012977;28;20038;-54
2021/12/21 00:50:17;;;;;;;8.52;5.53;;;1.30;99.90;;;;;;5012703;28;20142;-53
2021/12/21 00:52:46;;;;;;;12.15;4.82;;;1.30;99.90;;;;;;5013051;28;20112;-55
2021/12/21 00:55:12;;;;;;;9.02;5.10;;;1.30;99.90;;;;;;5012960;28;20026;-53
2021/12/21 00:57:38;;;;;;;13.18;5.55;;;1.20;99.90;;;;;;5017574;28;20021;-55
2021/12/21 01:00:06;;;;;;;14.68;6.32;;;1.10;99.90;;;;;;5031424;28;20499;-55
2021/12/21 01:02:32;;;;;;;11.77;6.05;;;1.10;99.90;;;;;;5029882;28;20040;-53
2021/12/21 01:04:58;;;;;;;13.57;5.15;;;1.10;99.90;;;;;;5012614;28;20104;-53
2021/12/21 01:07:32;;;;;;;9.65;5.10;;;1.10;99.90;;;;;;5012754;28;20025;-55
2021/12/21 01:12:51;;;;;;;10.02;4.95;;;1.10;99.90;;;;;;5012768;28;20026;-54
2021/12/21 01:17:54;;;;;;;10.43;5.25;;;1.00;99.90;;;;;;5012938;28;20116;-54
2021/12/21 01:20:40;;;;;;;9.80;4.63;;;1.00;99.90;;;;;;5012849;28;20026;-52
2021/12/21 01:26:06;;;;;;;10.18;5.13;;;1.00;99.90;;;;;;5012699;28;20062;-51
2021/12/21 01:28:46;;;;;;;10.57;5.43;;;1.00;99.90;;;;;;5012565;28;20022;-54
2021/12/21 01:31:24;;;;;;;9.32;4.45;;;1.00;99.90;;;;;;5011555;28;20046;-51
2021/12/21 01:36:38;;;;;;;9.60;5.38;;;0.90;99.90;;;;;;5012493;28;20425;-54
2021/12/21 01:39:25;;;;;;;11.60;5.25;;;0.90;99.90;;;;;;5012543;28;20021;-53
2021/12/21 01:49:51;;;;;;;10.63;4.78;;;1.00;99.90;;;;;;5012206;28;20532;-54
2021/12/21 01:52:20;;;;;;;12.82;5.32;;;1.10;99.90;;;;;;5012284;28;20038;-53
2021/12/21 01:54:46;;;;;;;11.68;4.38;;;1.10;99.90;;;;;;5012712;28;20439;-54
2021/12/21 01:57:14;;;;;;;9.13;4.10;;;1.10;99.90;;;;;;5013192;28;20038;-55
2021/12/21 01:59:41;;;;;;;7.80;4.38;;;1.10;99.90;;;;;;5031202;28;20033;-51
2021/12/21 02:02:08;;;;;;;9.93;5.40;;;1.10;99.90;;;;;;5031851;28;20028;-54
2021/12/21 02:04:35;;;;;;;9.73;4.50;;;1.20;99.90;;;;;;5015791;28;20033;-53
2021/12/21 02:07:01;;;;;;;7.95;4.32;;;1.20;99.90;;;;;;5015497;28;20030;-51
2021/12/21 02:09:35;;;;;;;9.95;4.93;;;1.20;99.90;;;;;;5016119;28;20029;-52
2021/12/21 02:12:01;;;;;;;10.73;4.80;;;1.30;99.90;;;;;;5015909;28;20026;-53
2021/12/21 02:14:26;;;;;;;9.80;4.55;;;1.40;99.90;;;;;;5015044;28;20085;-56
2021/12/21 02:17:25;;;;;;;10.23;4.57;;;1.40;99.90;;;;;;5015952;28;20424;-54
2021/12/21 02:19:42;;;;;;;11.80;4.72;;;1.40;99.90;;;;;;5014663;28;20018;-52
2021/12/21 02:22:12;;;;;;;10.30;4.45;;;1.50;99.90;;;;;;5015571;28;20031;-53
2021/12/21 02:24:47;;;;;;;8.75;4.25;;;1.50;99.90;;;;;;5015848;28;20026;-52
2021/12/21 02:27:29;;;;;;;7.90;4.50;;;1.60;99.90;;;;;;4997904;28;20034;-52
2021/12/21 02:29:55;;;;;;;8.07;5.00;;;1.60;99.90;;;;;;5014840;28;20068;-51
2021/12/21 02:32:22;;;;;;;9.65;4.43;;;1.60;99.90;;;;;;5015526;28;20116;-55
2021/12/21 02:34:49;;;;;;;11.25;5.13;;;1.70;99.90;;;;;;5015676;28;20484;-53
2021/12/21 02:37:16;;;;;;;8.65;4.90;;;1.70;99.90;;;;;;5015227;28;20485;-54
2021/12/21 02:39:41;;;;;;;9.90;4.40;;;1.70;99.90;;;;;;4998234;28;20559;-51
2021/12/21 02:42:07;;;;;;;12.73;5.03;;;1.70;99.90;;;;;;5015207;28;20108;-55
2021/12/21 02:44:33;;;;;;;9.73;4.50;;;1.80;99.90;;;;;;5014496;28;20033;-55
2021/12/21 02:46:59;;;;;;;9.35;3.95;;;1.80;99.90;;;;;;5015178;28;20025;-51
2021/12/21 02:49:25;;;;;;;12.98;4.82;;;1.80;99.90;;;;;;5015210;28;20549;-55
2021/12/21 02:51:51;;;;;;;12.07;4.53;;;1.90;99.90;;;;;;5015053;28;20108;-50
2021/12/21 02:54:19;;;;;;;9.10;4.72;;;1.90;99.90;;;;;;5015216;28;20022;-51
2021/12/21 02:56:46;;;;;;;9.02;4.13;;;1.90;99.90;;;;;;5014908;28;20040;-53
2021/12/21 02:59:12;;;;;;;10.80;3.53;;;1.90;99.90;;;;;;5014561;28;20044;-54
2021/12/21 03:01:38;;;;;;;9.32;4.97;;;2.00;99.90;;;;;;5033897;28;20034;-54
2021/12/21 03:04:05;;;;;;;11.38;4.93;;;2.00;99.90;;;;;;5019321;28;20033;-52
2021/12/21 03:14:38;;;;;;;6.68;4.05;;;2.00;99.90;;;;;;5012767;28;20065;-53
2021/12/21 03:17:05;;;;;;;12.73;4.65;;;2.00;99.90;;;;;;5014565;28;20537;-56
2021/12/21 03:19:31;;;;;;;8.95;4.25;;;2.00;99.90;;;;;;4997300;28;20477;-53
2021/12/21 03:21:57;;;;;;;9.73;3.97;;;2.00;99.90;;;;;;5014376;28;20029;-53
2021/12/21 03:24:22;;;;;;;10.45;4.80;;;2.00;99.90;;;;;;5014629;28;20038;-56
2021/12/21 03:26:50;;;;;;;14.18;5.03;;;2.00;99.90;;;;;;5014564;28;20034;-52
2021/12/21 03:29:15;;;;;;;11.90;4.32;;;2.00;99.90;;;;;;4996931;28;20113;-53
2021/12/21 03:31:41;;;;;;;8.80;4.20;;;2.00;99.90;;;;;;5013628;28;20041;-52
2021/12/21 03:34:06;;;;;;;10.52;5.03;;;2.00;99.90;;;;;;4996800;28;20113;-53
2021/12/21 03:36:32;;;;;;;7.70;4.20;;;2.00;99.90;;;;;;5014269;28;20033;-54
2021/12/21 03:39:04;;;;;;;8.85;3.85;;;2.00;99.90;;;;;;5014246;28;20026;-52
2021/12/21 03:41:30;;;;;;;7.90;4.28;;;2.00;99.90;;;;;;4996617;28;20469;-55
2021/12/21 03:43:59;;;;;;;8.35;4.22;;;2.00;99.90;;;;;;5014288;28;20040;-55
2021/12/21 03:46:25;;;;;;;5.97;3.67;;;2.00;99.90;;;;;;5013232;28;20045;-52
2021/12/21 03:48:51;;;;;;;11.63;4.88;;;2.00;99.90;;;;;;4996458;28;20030;-55
2021/12/21 03:51:18;;;;;;;9.93;4.40;;;2.00;99.90;;;;;;4996213;28;20046;-52
2021/12/21 03:53:45;;;;;;;10.77;5.10;;;2.00;99.90;;;;;;5013989;28;20025;-54
2021/12/21 03:58:54;;;;;;;9.57;4.57;;;2.00;99.90;;;;;;5029305;28;20040;-52
2021/12/21 04:01:20;;;;;;;7.90;4.05;;;2.00;99.90;;;;;;5014908;28;20029;-52
2021/12/21 04:03:47;;;;;;;10.82;4.88;;;2.00;99.90;;;;;;5020767;28;20045;-55
2021/12/21 04:06:12;;;;;;;12.27;4.93;;;2.10;99.90;;;;;;5013902;28;20077;-52
2021/12/21 04:08:38;;;;;;;12.77;5.97;;;2.10;99.90;;;;;;5013605;28;20529;-52
2021/12/21 04:11:04;;;;;;;11.30;5.05;;;2.10;99.90;;;;;;5013828;28;20026;-53
2021/12/21 04:13:30;;;;;;;10.60;5.38;;;2.10;99.90;;;;;;4996073;28;20308;-54
2021/12/21 04:15:59;;;;;;;9.50;5.15;;;2.10;99.90;;;;;;5012767;28;20041;-54
2021/12/21 04:18:25;;;;;;;15.25;5.45;;;2.20;99.90;;;;;;4993778;28;20021;-51
2021/12/21 04:20:51;;;;;;;9.10;4.57;;;2.10;99.90;;;;;;5013458;28;20036;-52
2021/12/21 04:23:17;;;;;;;9.38;4.20;;;2.20;99.90;;;;;;5013017;28;20516;-51
2021/12/21 04:25:43;;;;;;;11.75;4.93;;;2.20;99.90;;;;;;5013094;28;20100;-47
2021/12/21 04:28:08;;;;;;;9.13;4.78;;;2.20;99.90;;;;;;4995717;28;20530;-55
2021/12/21 04:30:34;;;;;;;10.38;5.45;;;2.20;99.90;;;;;;5012361;28;20032;-52
2021/12/21 04:32:59;;;;;;;8.40;4.93;;;2.20;99.90;;;;;;5013284;28;20022;-54
2021/12/21 04:35:25;;;;;;;10.38;5.00;;;2.20;99.90;;;;;;5013297;28;20034;-51
2021/12/21 04:37:58;;;;;;;7.32;3.92;;;2.20;99.90;;;;;;5013156;28;20065;-55
2021/12/21 04:40:37;;;;;;;8.68;4.53;;;2.30;99.90;;;;;;5013079;28;20022;-54
2021/12/21 04:43:05;;;;;;;8.82;4.32;;;2.30;99.90;;;;;;5013017;28;20029;-52
2021/12/21 04:45:31;;;;;;;11.48;4.80;;;2.30;99.90;;;;;;5012270;28;20404;-52
2021/12/21 04:47:57;;;;;;;8.95;5.03;;;2.30;99.90;;;;;;5012899;28;20034;-54
2021/12/21 04:50:23;;;;;;;10.63;5.30;;;2.20;99.90;;;;;;5012589;28;20053;-54
2021/12/21 04:52:48;;;;;;;9.93;4.60;;;2.20;99.90;;;;;;5013020;28;20065;-53
2021/12/21 04:55:14;;;;;;;11.52;4.38;;;2.20;99.90;;;;;;5012679;28;20069;-51
2021/12/21 04:57:41;;;;;;;10.23;4.88;;;2.30;99.90;;;;;;5017500;28;20469;-54
2021/12/21 05:00:08;;;;;;;11.95;4.93;;;2.30;99.90;;;;;;5031741;28;20022;-56
2021/12/21 05:02:34;;;;;;;10.43;5.50;;;2.20;99.90;;;;;;5029453;28;20584;-55
2021/12/21 05:04:59;;;;;;;11.43;4.95;;;2.20;99.90;;;;;;5009691;28;20101;-51
2021/12/21 05:07:27;;;;;;;11.23;5.15;;;2.20;99.90;;;;;;5012367;28;20037;-53
2021/12/21 05:09:57;;;;;;;7.47;3.80;;;2.10;99.90;;;;;;5012837;28;20109;-53
2021/12/21 05:12:23;;;;;;;6.47;4.18;;;2.10;99.90;;;;;;5012019;28;20018;-53
2021/12/21 05:14:48;;;;;;;9.57;4.70;;;2.10;99.90;;;;;;5011749;28;20029;-53
2021/12/21 05:17:14;;;;;;;8.95;4.15;;;2.10;99.90;;;;;;4994842;28;20030;-54
2021/12/21 05:19:40;;;;;;;13.00;4.55;;;2.10;99.90;;;;;;5012587;28;20076;-53
2021/12/21 05:22:05;;;;;;;10.50;5.95;;;2.10;99.90;;;;;;5012478;28;20026;-53
2021/12/21 05:24:31;;;;;;;8.98;4.70;;;2.10;99.90;;;;;;5012188;28;20030;-55
2021/12/21 05:26:56;;;;;;;8.50;4.20;;;2.00;99.90;;;;;;5012265;28;20030;-53
2021/12/21 05:29:22;;;;;;;8.13;4.25;;;2.00;99.90;;;;;;5011410;28;20033;-57
2021/12/21 05:31:47;;;;;;;11.20;4.40;;;2.10;99.90;;;;;;5012490;28;20077;-57
2021/12/21 05:34:13;;;;;;;10.30;4.63;;;2.00;99.90;;;;;;5012358;28;20150;-54
2021/12/21 05:36:38;;;;;;;8.20;4.30;;;2.00;99.90;;;;;;5012507;28;20026;-56
2021/12/21 05:39:13;;;;;;;8.07;4.45;;;2.00;99.90;;;;;;5015289;28;20033;-51
2021/12/21 05:44:15;;;;;;;10.95;4.70;;;2.00;99.90;;;;;;5015260;28;20093;-53
2021/12/21 05:46:42;;;;;;;7.50;4.03;;;2.00;99.90;;;;;;5010327;28;20033;-54
2021/12/21 05:49:08;;;;;;;11.65;4.75;;;2.00;99.90;;;;;;5016262;28;20030;-56
2021/12/21 05:51:33;;;;;;;6.40;3.45;;;2.00;99.90;;;;;;5011359;28;20484;-51
2021/12/21 05:53:59;;;;;;;5.50;3.95;;;2.00;99.90;;;;;;5013395;28;20058;-57
2021/12/21 05:56:24;;;;;;;9.43;4.05;;;2.00;99.90;;;;;;5015572;28;20030;-51
2021/12/21 05:58:50;;;;;;;8.20;3.55;;;2.00;99.90;;;;;;5030256;28;20064;-53
2021/12/21 06:01:16;;;;;;;6.85;3.83;;;2.00;99.90;;;;;;5034805;28;20057;-56
2021/12/21 06:03:41;;;;;;;9.93;4.55;;;2.00;99.90;;;;;;5023109;28;20103;-51
2021/12/21 06:06:16;;;;;;;9.85;3.65;;;2.00;99.90;;;;;;5015965;28;20102;-52
2021/12/21 06:08:45;;;;;;;6.50;3.47;;;2.00;99.90;;;;;;4997791;28;20456;-53
2021/12/21 06:11:11;;;;;;;5.55;2.53;;;2.00;99.90;;;;;;5015751;28;20041;-55
2021/12/21 06:26:28;;;;;;;4.72;3.15;;;1.90;99.90;;;;;;5015366;28;20026;-54
2021/12/21 06:28:54;;;;;;;4.43;2.75;;;1.90;99.90;;;;;;5012642;28;20080;-54
2021/12/21 06:31:19;;;;;;;7.32;2.83;;;1.90;99.90;;;;;;5014450;28;20026;-54
2021/12/21 06:33:45;;;;;;;4.93;3.20;;;1.80;99.90;;;;;;5014957;28;20041;-53
2021/12/21 06:36:11;;;;;;;4.43;2.97;;;1.80;99.90;;;;;;5015226;28;20029;-53
2021/12/21 06:38:37;;;;;;;6.88;2.97;;;1.80;99.90;;;;;;5015252;28;20033;-55
2021/12/21 06:41:03;;;;;;;4.80;3.00;;;1.80;99.90;;;;;;4997834;28;20048;-54
2021/12/21 06:43:28;;;;;;;2.92;2.22;;;1.80;99.90;;;;;;5015018;28;20470;-54
2021/12/21 06:46:03;;;;;;;4.15;2.75;;;1.80;99.90;;;;;;5014448;28;20032;-55
2021/12/21 06:53:40;;;;;;;3.15;2.30;;;1.80;99.90;;;;;;5014987;28;20026;-52
2021/12/21 06:56:08;;;;;;;3.45;2.20;;;1.80;99.90;;;;;;5015156;28;20022;-53
2021/12/21 06:58:34;;;;;;;3.80;2.80;;;1.70;99.90;;;;;;5026720;28;20037;-56
2021/12/21 07:01:02;;;;;;;3.05;2.42;;;1.70;99.90;;;;;;5033863;28;20041;-55
2021/12/21 07:03:28;;;;;;;4.80;2.80;;;1.70;99.90;;;;;;5024208;28;20037;-56
2021/12/21 07:05:54;;;;;;;5.63;2.88;;;1.70;99.90;;;;;;5012478;28;20037;-54
2021/12/21 07:08:26;;;;;;;6.35;2.80;;;1.80;99.90;;;;;;5014836;28;20041;-51
2021/12/21 07:10:56;;;;;;;4.32;2.53;;;1.80;99.90;;;;;;5014971;28;20105;-56
2021/12/21 07:19:01;;;;;;;4.35;2.90;;;1.70;99.90;;;;;;5014922;28;20543;-54
2021/12/21 07:21:26;;;;;;;5.20;3.17;;;1.70;99.90;;;;;;5014630;28;20030;-56
2021/12/21 07:23:52;;;;;;;4.35;2.65;;;1.70;99.90;;;;;;5014228;28;20121;-53
2021/12/21 07:26:18;;;;;;;9.05;3.67;;;1.70;99.90;;;;;;5014681;28;20036;-51
2021/12/21 07:28:44;;;;;;;3.35;2.42;;;1.70;99.90;;;;;;5014084;28;20038;-56
2021/12/21 07:31:10;;;;;;;5.57;2.90;;;1.70;99.90;;;;;;5013593;28;20030;-54
2021/12/21 07:33:35;;;;;;;6.60;3.33;;;1.70;99.90;;;;;;5014258;28;20037;-53
2021/12/21 07:36:01;;;;;;;3.92;2.53;;;1.70;99.90;;;;;;5014391;28;20034;-53
2021/12/21 07:38:30;;;;;;;6.10;3.05;;;1.70;99.90;;;;;;5013865;28;20032;-55
2021/12/21 07:40:59;;;;;;;4.90;3.05;;;1.70;99.90;;;;;;5014425;28;20037;-53
2021/12/21 07:43:25;;;;;;;4.78;2.72;;;1.70;99.90;;;;;;4996539;28;20072;-57
2021/12/21 07:45:51;;;;;;;4.65;3.10;;;1.70;99.90;;;;;;5013203;28;20073;-56
2021/12/21 07:48:17;;;;;;;4.90;2.90;;;1.70;99.90;;;;;;5014024;28;20041;-54
2021/12/21 07:50:43;;;;;;;4.10;3.05;;;1.80;99.90;;;;;;5013824;28;20050;-55
2021/12/21 07:53:09;;;;;;;4.78;3.33;;;1.80;99.90;;;;;;5013869;28;20034;-55
2021/12/21 07:55:34;;;;;;;5.00;3.10;;;1.80;99.90;;;;;;5013941;28;20496;-54
2021/12/21 07:58:00;;;;;;;5.22;2.80;;;1.90;99.90;;;;;;5003677;28;20036;-50
2021/12/21 08:00:26;;;;;;;5.30;3.40;;;1.90;99.90;;;;;;5032173;28;20029;-57
2021/12/21 08:02:53;;;;;;;5.72;3.03;;;2.00;99.90;;;;;;5027914;28;20041;-52
2021/12/21 08:05:19;;;;;;;6.22;3.25;;;2.00;99.90;;;;;;5013793;28;20032;-55
2021/12/21 08:07:50;;;;;;;6.70;4.38;;;2.10;99.90;;;;;;5013522;28;20041;-50
2021/12/21 08:10:20;;;;;;;8.13;5.05;;;2.10;99.90;;;;;;5013678;28;20423;-54
2021/12/21 08:12:46;;;;;;;6.43;3.80;;;2.10;99.90;;;;;;5013659;28;20026;-55
2021/12/21 08:15:11;;;;;;;7.85;4.25;;;2.10;99.90;;;;;;5012547;28;20452;-57
2021/12/21 08:17:37;;;;;;;5.65;3.22;;;2.20;99.90;;;;;;5013601;28;20026;-55
2021/12/21 08:20:03;;;;;;;6.57;3.65;;;2.20;99.90;;;;;;5013525;28;20403;-54
2021/12/21 08:22:28;;;;;;;5.25;3.47;;;2.30;99.90;;;;;;4995665;28;20065;-54
2021/12/21 08:24:54;;;;;;;5.18;3.00;;;2.30;99.90;;;;;;5013407;28;20076;-53
2021/12/21 08:27:19;;;;;;;5.63;3.28;;;2.40;99.90;;;;;;5013537;28;20460;-55
2021/12/21 08:29:45;;;;;;;3.97;2.97;;;2.40;99.90;;;;;;5007909;28;20072;-53
2021/12/21 08:32:11;;;;;;;5.15;3.63;;;2.50;99.90;;;;;;5013287;28;20382;-57
2021/12/21 08:34:37;;;;;;;6.45;3.45;;;2.50;99.90;;;;;;5013114;28;20022;-56
2021/12/21 08:37:03;;;;;;;6.20;3.33;;;2.60;99.90;;;;;;5013025;28;20033;-57
2021/12/21 08:39:37;;;;;;;6.05;3.58;;;2.60;99.90;;;;;;5013072;28;20072;-53
2021/12/21 08:42:02;;;;;;;7.18;3.50;;;2.70;99.90;;;;;;5013042;28;20076;-56
2021/12/21 08:44:29;;;;;;;3.38;2.35;;;2.70;99.90;;;;;;5012027;28;20034;-56
2021/12/21 08:46:57;;;;;;;4.75;3.05;;;2.70;99.90;;;;;;5012941;28;20036;-50
2021/12/21 08:49:23;;;;;;;5.30;3.13;;;2.80;99.90;;;;;;5012617;28;20029;-55
2021/12/21 08:51:48;;;;;;;4.57;2.70;;;2.80;99.90;;;;;;5012753;28;20102;-53
2021/12/21 08:54:14;;;;;;;5.70;2.97;;;2.80;99.90;;;;;;5012939;28;20034;-54
2021/12/21 08:56:40;;;;;;;4.93;3.33;;;2.80;99.90;;;;;;5012790;28;20493;-55
2021/12/21 08:59:05;;;;;;;4.85;3.00;;;2.80;99.90;;;;;;5029260;28;20052;-54
2021/12/21 09:01:31;;;;;;;4.70;3.45;;;2.90;99.90;;;;;;5031682;28;20455;-57
2021/12/21 09:03:57;;;;;;;4.55;2.95;;;2.80;99.90;;;;;;5017807;28;20041;-53
2021/12/21 09:06:24;;;;;;;4.93;2.95;;;2.80;99.90;;;;;;5012847;28;20096;-55
2021/12/21 09:08:49;;;;;;;5.10;2.70;;;2.80;99.90;;;;;;5012526;28;20037;-55
2021/12/21 09:11:15;;;;;;;2.65;2.00;;;2.90;99.90;;;;;;5012689;28;20029;-50
2021/12/21 09:13:40;;;;;;;3.65;2.72;;;2.90;99.90;;;;;;5012536;28;20485;-56
2021/12/21 09:16:06;;;;;;;4.60;3.22;;;3.00;99.90;;;;;;5011556;28;20022;-53
2021/12/21 09:18:31;;;;;;;3.50;2.70;;;3.10;99.90;;;;;;5012322;28;20026;-52
2021/12/21 09:20:57;;;;;;;4.80;3.10;;;3.00;99.90;;;;;;5012541;28;20040;-56
2021/12/21 09:23:23;;;;;;;3.63;2.58;;;3.10;99.90;;;;;;5012607;28;20071;-54
2021/12/21 09:25:49;;;;;;;7.28;2.90;;;3.20;99.90;;;;;;5012507;28;20482;-52
2021/12/21 09:28:14;;;;;;;2.25;2.05;;;3.30;99.90;;;;;;5012416;28;20041;-54
2021/12/21 09:30:40;;;;;;;5.65;2.70;;;3.30;99.90;;;;;;5011323;28;20026;-54
2021/12/21 09:33:05;;;;;;;3.85;2.60;;;3.30;99.90;;;;;;5012350;28;20026;-54
2021/12/21 09:35:31;;;;;;;4.50;2.47;;;3.40;99.90;;;;;;5012447;28;20065;-55
2021/12/21 09:37:56;;;;;;;4.80;2.95;;;3.40;99.90;;;;;;5012327;28;20055;-52
2021/12/21 09:40:27;;;;;;;5.97;2.58;;;3.30;99.90;;;;;;5012445;28;20026;-52
2021/12/21 09:42:53;;;;;;;3.05;2.15;;;3.20;99.90;;;;;;5012221;28;20030;-52
2021/12/21 09:45:19;;;;;;;5.38;2.35;;;3.20;99.90;;;;;;5011392;28;20105;-51
2021/12/21 09:47:45;;;;;;;5.15;3.47;;;3.10;99.90;;;;;;5011970;28;20026;-51
2021/12/21 09:50:13;;;;;;;2.20;1.90;;;3.10;99.90;;;;;;5012238;28;20080;-51
2021/12/21 09:52:39;;;;;;;3.78;2.03;;;3.10;99.90;;;;;;5012284;28;20033;-55
2021/12/21 09:55:11;;;;;;;3.30;2.22;;;3.10;99.90;;;;;;5012260;28;20026;-53
2021/12/21 09:57:37;;;;;;;2.85;2.30;;;3.30;99.90;;;;;;5016675;28;20053;-56
2021/12/21 10:00:08;;;;;;;3.58;2.72;;;3.40;99.90;;;;;;5030906;28;20061;-55
2021/12/21 10:02:35;;;;;;;2.75;2.10;;;3.40;99.90;;;;;;5028762;28;20026;-51
2021/12/21 10:05:06;;;;;;;2.80;2.20;;;3.50;99.90;;;;;;5012045;28;20034;-52
2021/12/21 10:07:32;;;;;;;2.67;2.33;;;3.50;99.90;;;;;;5012163;28;20080;-49
2021/12/21 10:10:18;;;;;;;5.20;2.92;;;3.60;99.90;;;;;;5012078;28;20049;-55
2021/12/21 10:12:46;;;;;;;4.90;3.63;;;3.60;99.90;;;;;;5012105;28;20049;-51
2021/12/21 10:15:18;;;;;;;3.80;3.08;;;3.50;99.90;;;;;;5010954;28;20261;-53
2021/12/21 10:17:53;;;;;;;5.10;3.35;;;3.50;99.90;;;;;;5011817;28;20030;-55
2021/12/21 10:20:41;;;;;;;5.68;3.35;;;3.50;99.90;;;;;;5012199;28;20442;-50
2021/12/21 10:23:24;;;;;;;4.65;3.30;;;3.40;99.90;;;;;;5011958;28;20548;-53
2021/12/21 10:25:55;;;;;;;6.63;3.92;;;3.30;99.90;;;;;;5015489;28;20045;-50
2021/12/21 10:28:48;;;;;;;4.63;3.45;;;3.20;99.90;;;;;;5015493;28;20032;-51
2021/12/21 10:31:39;;;;;;;7.45;4.07;;;3.10;99.90;;;;;;4977783;28;20289;-52
2021/12/21 10:34:12;;;;;;;7.35;4.03;;;3.00;99.90;;;;;;5015267;28;20524;-55
2021/12/21 10:36:57;;;;;;;6.32;3.80;;;3.00;99.90;;;;;;5015512;28;20568;-56
2021/12/21 10:39:27;;;;;;;8.02;3.95;;;2.80;99.90;;;;;;5015409;28;20077;-52
2021/12/21 10:41:59;;;;;;;5.00;3.50;;;2.80;99.90;;;;;;5014987;28;20030;-56
2021/12/21 10:44:25;;;;;;;6.18;3.78;;;2.70;99.90;;;;;;5014426;28;20486;-54
2021/12/21 10:46:54;;;;;;;8.80;3.83;;;2.70;99.90;;;;;;5014906;28;20046;-54
2021/12/21 10:49:26;;;;;;;6.00;3.60;;;2.70;99.90;;;;;;5011558;28;20076;-53
2021/12/21 10:52:01;;;;;;;5.63;3.33;;;2.80;99.90;;;;;;5014997;28;20014;-55
2021/12/21 10:54:37;;;;;;;6.30;3.65;;;2.80;99.90;;;;;;5015053;28;20053;-54
2021/12/21 10:57:11;;;;;;;8.27;3.63;;;2.90;99.90;;;;;;5014849;28;20022;-54
2021/12/21 10:59:40;;;;;;;6.13;3.70;;;3.00;99.90;;;;;;4994114;28;20382;-51
2021/12/21 11:02:15;;;;;;;4.70;3.33;;;3.10;99.90;;;;;;4995013;28;20106;-55
2021/12/21 11:04:47;;;;;;;5.30;3.15;;;3.20;99.90;;;;;;4995227;28;20022;-51
2021/12/21 11:07:28;;;;;;;5.93;3.80;;;3.30;99.90;;;;;;4995053;28;20105;-54
2021/12/21 11:10:10;;;;;;;5.57;3.42;;;3.30;99.90;;;;;;4994970;28;20018;-51
2021/12/21 11:12:54;;;;;;;6.10;3.38;;;3.40;99.90;;;;;;4995091;28;20027;-50
2021/12/21 11:15:21;;;;;;;3.90;3.10;;;3.40;99.90;;;;;;4976632;28;20158;-52
2021/12/21 11:17:48;;;;;;;5.70;3.72;;;3.40;99.90;;;;;;4994964;28;20037;-55
2021/12/21 11:20:15;;;;;;;5.05;3.15;;;3.40;99.90;;;;;;4994829;28;20030;-55
2021/12/21 11:22:43;;;;;;;5.50;3.03;;;3.40;99.90;;;;;;4995027;28;20030;-56
2021/12/21 11:25:11;;;;;;;5.00;2.80;;;3.40;99.90;;;;;;4994808;28;20041;-56
2021/12/21 11:27:39;;;;;;;3.25;2.40;;;3.40;99.90;;;;;;4999051;28;20030;-53
2021/12/21 11:30:17;;;;;;;6.10;3.53;;;3.50;99.90;;;;;;5013082;28;20078;-52
2021/12/21 11:32:49;;;;;;;5.60;3.58;;;3.50;99.90;;;;;;5014373;28;20025;-51
2021/12/21 11:38:09;;;;;;;5.45;2.95;;;3.60;99.90;;;;;;4983313;28;20065;-50
2021/12/21 11:40:39;;;;;;;7.28;3.70;;;3.70;99.90;;;;;;5014089;28;20018;-50
2021/12/21 11:43:32;;;;;;;4.93;3.13;;;3.80;99.90;;;;;;5013915;28;20117;-54
2021/12/21 11:46:06;;;;;;;3.25;2.40;;;3.80;99.90;;;;;;5013062;28;20030;-52
2021/12/21 11:48:50;;;;;;;3.08;2.40;;;3.80;99.90;;;;;;5013926;28;20029;-50
2021/12/21 11:51:21;;;;;;;4.90;2.90;;;3.80;99.90;;;;;;5013810;28;20038;-54
2021/12/21 11:53:48;;;;;;;4.15;2.80;;;3.80;99.90;;;;;;5014046;28;20041;-53
2021/12/21 11:56:21;;;;;;;4.63;2.72;;;3.90;99.90;;;;;;5013861;28;20429;-56
2021/12/21 11:58:50;;;;;;;3.97;2.55;;;3.90;99.90;;;;;;5027569;28;20040;-53
2021/12/21 12:01:22;;;;;;;3.75;2.50;;;3.90;99.90;;;;;;5032643;28;20025;-53
2021/12/21 12:03:54;;;;;;;2.90;2.33;;;3.90;99.90;;;;;;5020490;28;20084;-50
2021/12/21 12:06:19;;;;;;;3.30;2.35;;;4.00;99.90;;;;;;5011718;28;20037;-53
2021/12/21 12:08:46;;;;;;;4.40;2.67;;;4.00;99.90;;;;;;5013591;28;20085;-54
2021/12/21 12:11:35;;;;;;;3.67;2.42;;;4.00;99.90;;;;;;5013592;28;20018;-50
2021/12/21 12:14:11;;;;;;;3.15;2.25;;;4.00;99.90;;;;;;4993948;28;20023;-51
2021/12/21 12:16:48;;;;;;;4.35;2.80;;;4.00;99.90;;;;;;4994005;28;20105;-56
2021/12/21 12:19:17;;;;;;;4.80;2.65;;;4.00;99.90;;;;;;4993933;28;20038;-52
2021/12/21 12:21:57;;;;;;;4.22;2.78;;;4.00;99.90;;;;;;4994029;28;20438;-55
2021/12/21 12:24:25;;;;;;;4.85;2.45;;;4.00;99.90;;;;;;4993760;28;20030;-51
2021/12/21 12:27:00;;;;;;;3.17;2.40;;;3.90;99.90;;;;;;4993774;28;20466;-51
2021/12/21 12:29:25;;;;;;;3.75;2.38;;;3.90;99.90;;;;;;4992862;28;20042;-55
2021/12/21 12:32:11;;;;;;;4.40;2.33;;;3.90;99.90;;;;;;4993806;28;20106;-53
2021/12/21 12:34:38;;;;;;;4.43;2.78;;;4.00;99.90;;;;;;4993558;28;20109;-52
2021/12/21 12:37:15;;;;;;;4.50;2.58;;;3.90;99.90;;;;;;4993426;28;20033;-56
2021/12/21 12:39:44;;;;;;;3.35;2.28;;;3.90;99.90;;;;;;4993838;28;20026;-55
2021/12/21 12:42:19;;;;;;;3.90;2.33;;;3.80;99.90;;;;;;4993464;28;20038;-52
2021/12/21 12:44:46;;;;;;;5.15;2.58;;;3.70;99.90;;;;;;4991101;28;20026;-53
2021/12/21 12:47:14;;;;;;;5.28;2.50;;;3.60;99.90;;;;;;4992971;28;20405;-54
2021/12/21 12:49:52;;;;;;;4.32;2.50;;;3.50;99.90;;;;;;4993464;28;20065;-52
2021/12/21 12:52:28;;;;;;;3.35;2.30;;;3.40;99.90;;;;;;4993267;28;20359;-50
2021/12/21 12:54:59;;;;;;;3.85;2.42;;;3.20;99.90;;;;;;4993496;28;20022;-51
2021/12/21 12:57:39;;;;;;;3.75;2.25;;;3.10;99.90;;;;;;4998745;28;20037;-56
2021/12/21 13:00:37;;;;;;;5.32;2.83;;;3.00;99.90;;;;;;5031755;28;20060;-52
2021/12/21 13:03:06;;;;;;;4.07;2.47;;;2.90;99.90;;;;;;4955155;28;20038;-55
2021/12/21 13:05:38;;;;;;;5.10;2.75;;;2.80;99.90;;;;;;5012805;28;20033;-54
2021/12/21 13:08:10;;;;;;;4.13;2.72;;;2.70;99.90;;;;;;5012626;28;20026;-54
2021/12/21 13:10:38;;;;;;;12.35;3.65;;;2.60;99.90;;;;;;5012915;28;20014;-51
2021/12/21 13:13:04;;;;;;;3.05;2.38;;;2.60;99.90;;;;;;5012830;28;20097;-54
2021/12/21 13:15:38;;;;;;;4.35;2.47;;;2.50;99.90;;;;;;5011660;28;20038;-56
2021/12/21 13:18:06;;;;;;;5.43;2.75;;;2.50;99.90;;;;;;5012820;28;20105;-55
2021/12/21 13:20:34;;;;;;;7.15;3.38;;;2.40;99.90;;;;;;5012545;28;20080;-53
2021/12/21 13:23:26;;;;;;;3.65;2.25;;;2.40;99.90;;;;;;5012712;28;20389;-52
2021/12/21 13:25:52;;;;;;;5.28;2.70;;;2.30;99.90;;;;;;5012732;28;20520;-54
2021/12/21 13:28:18;;;;;;;6.32;2.83;;;2.30;99.90;;;;;;5012605;28;20045;-49
2021/12/21 13:30:49;;;;;;;3.83;2.25;;;2.30;99.90;;;;;;5011651;28;20378;-56
2021/12/21 13:33:22;;;;;;;4.80;2.90;;;2.30;99.90;;;;;;5012452;28;20482;-55
2021/12/21 13:35:49;;;;;;;3.47;2.78;;;2.40;99.90;;;;;;5012522;28;20496;-50
2021/12/21 13:38:16;;;;;;;4.93;3.10;;;2.50;99.90;;;;;;5012595;28;20026;-53
2021/12/21 13:40:42;;;;;;;4.28;2.20;;;2.50;99.90;;;;;;5012633;28;20033;-52
2021/12/21 13:43:14;;;;;;;3.95;2.15;;;2.50;99.90;;;;;;5012570;28;20026;-53
2021/12/21 13:45:41;;;;;;;10.82;2.90;;;2.60;99.90;;;;;;5011248;28;20034;-53
2021/12/21 13:48:17;;;;;;;5.55;2.95;;;2.50;99.90;;;;;;5012284;28;20113;-55
2021/12/21 13:50:43;;;;;;;3.38;2.58;;;2.40;99.90;;;;;;5012219;28;20034;-52
2021/12/21 13:53:09;;;;;;;6.22;2.92;;;2.40;99.90;;;;;;5012310;28;20026;-53
2021/12/21 13:55:40;;;;;;;4.32;2.80;;;2.40;99.90;;;;;;5012528;28;20429;-52
2021/12/21 13:58:11;;;;;;;6.35;3.00;;;2.40;99.90;;;;;;5003030;28;20467;-52
2021/12/21 14:00:45;;;;;;;3.53;2.22;;;2.50;99.90;;;;;;5034560;28;20022;-53
2021/12/21 14:03:21;;;;;;;4.03;2.08;;;2.50;99.90;;;;;;5027561;28;20129;-56
2021/12/21 14:05:54;;;;;;;3.70;2.30;;;2.50;99.90;;;;;;5015998;28;20026;-56